sensor_id;sensor_type;location;lat;lon;timestamp;P1;durP1;ratioP1;P2;durP2;ratioP2
46136;SDS011;31871;49.418;8.752;2022-11-15T00:00:04;14.25;;;6.00;;
46136;SDS011;31871;49.418;8.752;2022-11-15T00:02:30;16.33;;;5.90;;
46136;SDS011;31871;49.418;8.752;2022-11-15T00:04:55;13.27;;;5.78;;
46136;SDS011;31871;49.418;8.752;2022-11-15T00:07:21;18.48;;;5.65;;
46136;SDS011;31871;49.418;8.752;2022-11-15T00:09:46;11.30;;;5.72;;
46136;SDS011;31871;49.418;8.752;2022-11-15T00:12:12;10.40;;;5.13;;
46136;SDS011;31871;49.418;8.752;2022-11-15T00:14:37;9.45;;;5.18;;
46136;SDS011;31871;49.418;8.752;2022-11-15T00:17:03;13.85;;;5.72;;
46136;SDS011;31871;49.418;8.752;2022-11-15T00:19:29;9.90;;;4.95;;
46136;SDS011;31871;49.418;8.752;2022-11-15T00:21:54;10.85;;;5.50;;
46136;SDS011;31871;49.418;8.752;2022-11-15T00:24:20;10.40;;;5.40;;
46136;SDS011;31871;49.418;8.752;2022-11-15T00:26:45;13.05;;;5.18;;
46136;SDS011;31871;49.418;8.752;2022-11-15T00:29:11;10.80;;;5.03;;
46136;SDS011;31871;49.418;8.752;2022-11-15T00:31:37;15.65;;;5.38;;
46136;SDS011;31871;49.418;8.752;2022-11-15T00:34:02;11.98;;;5.57;;
46136;SDS011;31871;49.418;8.752;2022-11-15T00:36:28;12.63;;;5.45;;
46136;SDS011;31871;49.418;8.752;2022-11-15T00:38:53;12.60;;;4.78;;
46136;SDS011;31871;49.418;8.752;2022-11-15T00:41:19;14.30;;;5.07;;
46136;SDS011;31871;49.418;8.752;2022-11-15T00:43:44;11.00;;;5.13;;
46136;SDS011;31871;49.418;8.752;2022-11-15T00:46:10;12.65;;;5.88;;
46136;SDS011;31871;49.418;8.752;2022-11-15T00:48:36;13.10;;;5.78;;
46136;SDS011;31871;49.418;8.752;2022-11-15T00:51:02;12.10;;;5.25;;
46136;SDS011;31871;49.418;8.752;2022-11-15T00:53:27;9.95;;;5.18;;
46136;SDS011;31871;49.418;8.752;2022-11-15T00:55:53;11.38;;;5.18;;
46136;SDS011;31871;49.418;8.752;2022-11-15T00:58:18;13.23;;;5.43;;
46136;SDS011;31871;49.418;8.752;2022-11-15T01:00:44;10.15;;;4.88;;
46136;SDS011;31871;49.418;8.752;2022-11-15T01:03:10;11.13;;;5.15;;
46136;SDS011;31871;49.418;8.752;2022-11-15T01:05:37;13.65;;;5.03;;
46136;SDS011;31871;49.418;8.752;2022-11-15T01:08:03;13.07;;;5.50;;
46136;SDS011;31871;49.418;8.752;2022-11-15T01:10:29;9.52;;;5.43;;
46136;SDS011;31871;49.418;8.752;2022-11-15T01:12:54;12.10;;;5.32;;
46136;SDS011;31871;49.418;8.752;2022-11-15T01:15:20;12.20;;;5.55;;
46136;SDS011;31871;49.418;8.752;2022-11-15T01:17:45;10.63;;;5.05;;
46136;SDS011;31871;49.418;8.752;2022-11-15T01:20:11;10.50;;;5.20;;
46136;SDS011;31871;49.418;8.752;2022-11-15T01:22:37;19.58;;;6.13;;
46136;SDS011;31871;49.418;8.752;2022-11-15T01:25:02;10.27;;;5.00;;
46136;SDS011;31871;49.418;8.752;2022-11-15T01:27:28;13.65;;;5.63;;
46136;SDS011;31871;49.418;8.752;2022-11-15T01:29:54;10.00;;;4.85;;
46136;SDS011;31871;49.418;8.752;2022-11-15T01:32:19;13.27;;;5.20;;
46136;SDS011;31871;49.418;8.752;2022-11-15T01:34:45;10.15;;;5.22;;
46136;SDS011;31871;49.418;8.752;2022-11-15T01:37:10;9.43;;;4.75;;
46136;SDS011;31871;49.418;8.752;2022-11-15T01:39:36;11.20;;;5.03;;
46136;SDS011;31871;49.418;8.752;2022-11-15T01:42:01;9.73;;;5.00;;
46136;SDS011;31871;49.418;8.752;2022-11-15T01:46:56;10.80;;;5.50;;
46136;SDS011;31871;49.418;8.752;2022-11-15T01:49:22;11.43;;;5.35;;
46136;SDS011;31871;49.418;8.752;2022-11-15T01:51:49;10.25;;;4.97;;
46136;SDS011;31871;49.418;8.752;2022-11-15T01:54:15;11.45;;;4.80;;
46136;SDS011;31871;49.418;8.752;2022-11-15T01:56:52;11.25;;;5.10;;
46136;SDS011;31871;49.418;8.752;2022-11-15T01:59:21;10.30;;;5.18;;
46136;SDS011;31871;49.418;8.752;2022-11-15T02:01:47;13.00;;;5.05;;
46136;SDS011;31871;49.418;8.752;2022-11-15T02:04:14;12.20;;;5.93;;
46136;SDS011;31871;49.418;8.752;2022-11-15T02:06:43;14.77;;;5.07;;
46136;SDS011;31871;49.418;8.752;2022-11-15T02:09:10;15.85;;;5.40;;
46136;SDS011;31871;49.418;8.752;2022-11-15T02:11:37;15.60;;;4.80;;
46136;SDS011;31871;49.418;8.752;2022-11-15T02:14:02;9.07;;;4.68;;
46136;SDS011;31871;49.418;8.752;2022-11-15T02:16:39;11.98;;;5.15;;
46136;SDS011;31871;49.418;8.752;2022-11-15T02:30:53;15.30;;;5.25;;
46136;SDS011;31871;49.418;8.752;2022-11-15T02:38:59;14.63;;;6.38;;
46136;SDS011;31871;49.418;8.752;2022-11-15T02:44:07;11.07;;;5.85;;
46136;SDS011;31871;49.418;8.752;2022-11-15T02:46:46;11.43;;;5.25;;
46136;SDS011;31871;49.418;8.752;2022-11-15T02:49:35;13.27;;;5.68;;
46136;SDS011;31871;49.418;8.752;2022-11-15T02:52:02;11.80;;;5.47;;
46136;SDS011;31871;49.418;8.752;2022-11-15T02:54:29;11.10;;;5.40;;
46136;SDS011;31871;49.418;8.752;2022-11-15T02:56:59;13.18;;;5.40;;
46136;SDS011;31871;49.418;8.752;2022-11-15T02:59:43;12.25;;;5.45;;
46136;SDS011;31871;49.418;8.752;2022-11-15T03:03:04;11.10;;;4.85;;
46136;SDS011;31871;49.418;8.752;2022-11-15T03:08:12;12.38;;;5.20;;
46136;SDS011;31871;49.418;8.752;2022-11-15T03:16:26;20.08;;;5.45;;
46136;SDS011;31871;49.418;8.752;2022-11-15T03:19:25;11.80;;;4.95;;
46136;SDS011;31871;49.418;8.752;2022-11-15T03:21:36;14.80;;;5.40;;
46136;SDS011;31871;49.418;8.752;2022-11-15T03:24:05;9.35;;;4.97;;
46136;SDS011;31871;49.418;8.752;2022-11-15T03:26:33;8.55;;;4.55;;
46136;SDS011;31871;49.418;8.752;2022-11-15T03:29:04;11.27;;;5.75;;
46136;SDS011;31871;49.418;8.752;2022-11-15T03:31:35;14.05;;;4.80;;
46136;SDS011;31871;49.418;8.752;2022-11-15T03:36:56;11.82;;;5.35;;
46136;SDS011;31871;49.418;8.752;2022-11-15T03:39:22;12.85;;;5.18;;
46136;SDS011;31871;49.418;8.752;2022-11-15T03:41:51;11.05;;;5.35;;
46136;SDS011;31871;49.418;8.752;2022-11-15T03:47:32;12.63;;;5.45;;
46136;SDS011;31871;49.418;8.752;2022-11-15T03:50:10;12.80;;;4.90;;
46136;SDS011;31871;49.418;8.752;2022-11-15T03:52:39;11.32;;;5.40;;
46136;SDS011;31871;49.418;8.752;2022-11-15T03:55:06;11.30;;;5.00;;
46136;SDS011;31871;49.418;8.752;2022-11-15T03:57:35;10.38;;;4.75;;
46136;SDS011;31871;49.418;8.752;2022-11-15T04:00:00;12.27;;;5.22;;
46136;SDS011;31871;49.418;8.752;2022-11-15T04:02:26;12.82;;;5.78;;
46136;SDS011;31871;49.418;8.752;2022-11-15T04:04:53;13.18;;;5.53;;
46136;SDS011;31871;49.418;8.752;2022-11-15T04:07:18;10.13;;;5.35;;
46136;SDS011;31871;49.418;8.752;2022-11-15T04:09:44;11.85;;;4.80;;
46136;SDS011;31871;49.418;8.752;2022-11-15T04:12:28;13.35;;;5.50;;
46136;SDS011;31871;49.418;8.752;2022-11-15T04:15:02;11.43;;;5.47;;
46136;SDS011;31871;49.418;8.752;2022-11-15T04:17:55;12.38;;;5.93;;
46136;SDS011;31871;49.418;8.752;2022-11-15T04:20:23;11.27;;;5.20;;
46136;SDS011;31871;49.418;8.752;2022-11-15T04:23:13;11.55;;;5.05;;
46136;SDS011;31871;49.418;8.752;2022-11-15T04:26:03;11.48;;;5.03;;
46136;SDS011;31871;49.418;8.752;2022-11-15T04:28:30;10.93;;;5.10;;
46136;SDS011;31871;49.418;8.752;2022-11-15T04:30:55;14.25;;;5.15;;
46136;SDS011;31871;49.418;8.752;2022-11-15T04:33:21;13.65;;;5.80;;
46136;SDS011;31871;49.418;8.752;2022-11-15T04:35:47;11.10;;;5.18;;
46136;SDS011;31871;49.418;8.752;2022-11-15T04:38:33;12.95;;;5.05;;
46136;SDS011;31871;49.418;8.752;2022-11-15T04:40:59;8.85;;;4.63;;
46136;SDS011;31871;49.418;8.752;2022-11-15T04:43:25;9.43;;;4.75;;
46136;SDS011;31871;49.418;8.752;2022-11-15T04:45:50;15.85;;;5.88;;
46136;SDS011;31871;49.418;8.752;2022-11-15T04:48:16;11.90;;;5.57;;
46136;SDS011;31871;49.418;8.752;2022-11-15T04:50:42;10.30;;;5.13;;
46136;SDS011;31871;49.418;8.752;2022-11-15T04:53:07;11.38;;;5.30;;
46136;SDS011;31871;49.418;8.752;2022-11-15T04:55:33;9.07;;;4.72;;
46136;SDS011;31871;49.418;8.752;2022-11-15T04:57:59;11.25;;;4.85;;
46136;SDS011;31871;49.418;8.752;2022-11-15T05:00:25;11.13;;;6.30;;
46136;SDS011;31871;49.418;8.752;2022-11-15T05:02:51;10.00;;;4.53;;
46136;SDS011;31871;49.418;8.752;2022-11-15T05:05:35;8.32;;;4.60;;
46136;SDS011;31871;49.418;8.752;2022-11-15T05:08:01;9.95;;;4.45;;
46136;SDS011;31871;49.418;8.752;2022-11-15T05:10:27;14.52;;;4.65;;
46136;SDS011;31871;49.418;8.752;2022-11-15T05:12:52;16.13;;;5.05;;
46136;SDS011;31871;49.418;8.752;2022-11-15T05:15:18;11.05;;;4.90;;
46136;SDS011;31871;49.418;8.752;2022-11-15T05:17:44;9.18;;;4.63;;
46136;SDS011;31871;49.418;8.752;2022-11-15T05:20:09;13.05;;;4.97;;
46136;SDS011;31871;49.418;8.752;2022-11-15T05:22:35;14.10;;;5.32;;
46136;SDS011;31871;49.418;8.752;2022-11-15T05:25:01;9.35;;;4.72;;
46136;SDS011;31871;49.418;8.752;2022-11-15T05:27:26;11.68;;;4.57;;
46136;SDS011;31871;49.418;8.752;2022-11-15T05:29:52;9.73;;;4.97;;
46136;SDS011;31871;49.418;8.752;2022-11-15T05:32:17;9.43;;;4.57;;
46136;SDS011;31871;49.418;8.752;2022-11-15T05:34:43;9.95;;;4.88;;
46136;SDS011;31871;49.418;8.752;2022-11-15T05:37:10;10.77;;;5.18;;
46136;SDS011;31871;49.418;8.752;2022-11-15T05:39:35;12.98;;;4.70;;
46136;SDS011;31871;49.418;8.752;2022-11-15T05:42:11;11.90;;;4.40;;
46136;SDS011;31871;49.418;8.752;2022-11-15T05:44:44;13.80;;;4.70;;
46136;SDS011;31871;49.418;8.752;2022-11-15T05:47:15;11.13;;;5.35;;
46136;SDS011;31871;49.418;8.752;2022-11-15T05:49:43;11.85;;;5.05;;
46136;SDS011;31871;49.418;8.752;2022-11-15T05:52:11;10.43;;;4.95;;
46136;SDS011;31871;49.418;8.752;2022-11-15T05:54:39;9.82;;;5.10;;
46136;SDS011;31871;49.418;8.752;2022-11-15T05:57:05;6.97;;;4.07;;
46136;SDS011;31871;49.418;8.752;2022-11-15T05:59:31;12.50;;;5.32;;
46136;SDS011;31871;49.418;8.752;2022-11-15T06:01:58;12.70;;;5.85;;
46136;SDS011;31871;49.418;8.752;2022-11-15T06:04:24;12.15;;;5.28;;
46136;SDS011;31871;49.418;8.752;2022-11-15T06:06:49;16.75;;;4.60;;
46136;SDS011;31871;49.418;8.752;2022-11-15T06:09:15;12.32;;;5.60;;
46136;SDS011;31871;49.418;8.752;2022-11-15T06:11:41;13.15;;;6.18;;
46136;SDS011;31871;49.418;8.752;2022-11-15T06:14:06;11.40;;;5.85;;
46136;SDS011;31871;49.418;8.752;2022-11-15T06:16:32;22.70;;;5.90;;
46136;SDS011;31871;49.418;8.752;2022-11-15T06:18:57;11.98;;;5.38;;
46136;SDS011;31871;49.418;8.752;2022-11-15T06:21:23;11.65;;;5.13;;
46136;SDS011;31871;49.418;8.752;2022-11-15T06:23:48;16.98;;;7.35;;
46136;SDS011;31871;49.418;8.752;2022-11-15T06:26:14;13.23;;;5.85;;
46136;SDS011;31871;49.418;8.752;2022-11-15T06:28:40;22.58;;;10.27;;
46136;SDS011;31871;49.418;8.752;2022-11-15T06:31:06;13.40;;;6.03;;
46136;SDS011;31871;49.418;8.752;2022-11-15T06:33:34;12.32;;;5.03;;
46136;SDS011;31871;49.418;8.752;2022-11-15T06:36:03;11.80;;;5.15;;
46136;SDS011;31871;49.418;8.752;2022-11-15T06:38:30;15.02;;;7.07;;
46136;SDS011;31871;49.418;8.752;2022-11-15T06:41:02;44.55;;;18.08;;
46136;SDS011;31871;49.418;8.752;2022-11-15T06:43:29;22.80;;;9.30;;
46136;SDS011;31871;49.418;8.752;2022-11-15T06:45:55;22.73;;;8.93;;
46136;SDS011;31871;49.418;8.752;2022-11-15T06:48:20;30.98;;;12.80;;
46136;SDS011;31871;49.418;8.752;2022-11-15T06:50:56;36.58;;;14.25;;
46136;SDS011;31871;49.418;8.752;2022-11-15T06:53:23;30.90;;;12.55;;
46136;SDS011;31871;49.418;8.752;2022-11-15T06:55:48;60.40;;;20.90;;
46136;SDS011;31871;49.418;8.752;2022-11-15T06:58:14;46.47;;;16.95;;
46136;SDS011;31871;49.418;8.752;2022-11-15T07:00:40;23.02;;;10.60;;
46136;SDS011;31871;49.418;8.752;2022-11-15T07:03:06;49.72;;;20.80;;
46136;SDS011;31871;49.418;8.752;2022-11-15T07:05:32;28.95;;;12.93;;
46136;SDS011;31871;49.418;8.752;2022-11-15T07:07:58;19.33;;;8.88;;
46136;SDS011;31871;49.418;8.752;2022-11-15T07:10:24;12.70;;;5.85;;
46136;SDS011;31871;49.418;8.752;2022-11-15T07:12:54;9.30;;;4.78;;
46136;SDS011;31871;49.418;8.752;2022-11-15T07:15:21;12.15;;;5.40;;
46136;SDS011;31871;49.418;8.752;2022-11-15T07:17:48;14.90;;;4.65;;
46136;SDS011;31871;49.418;8.752;2022-11-15T07:20:14;12.82;;;4.82;;
46136;SDS011;31871;49.418;8.752;2022-11-15T07:22:40;8.38;;;4.40;;
46136;SDS011;31871;49.418;8.752;2022-11-15T07:25:06;9.75;;;4.70;;
46136;SDS011;31871;49.418;8.752;2022-11-15T07:27:33;13.90;;;4.68;;
46136;SDS011;31871;49.418;8.752;2022-11-15T07:29:59;16.30;;;5.38;;
46136;SDS011;31871;49.418;8.752;2022-11-15T07:32:25;9.25;;;4.78;;
46136;SDS011;31871;49.418;8.752;2022-11-15T07:34:51;9.65;;;4.55;;
46136;SDS011;31871;49.418;8.752;2022-11-15T07:37:16;10.40;;;4.65;;
46136;SDS011;31871;49.418;8.752;2022-11-15T07:39:42;8.63;;;4.43;;
46136;SDS011;31871;49.418;8.752;2022-11-15T07:42:08;9.27;;;4.75;;
46136;SDS011;31871;49.418;8.752;2022-11-15T07:44:52;9.65;;;4.40;;
46136;SDS011;31871;49.418;8.752;2022-11-15T07:47:18;15.32;;;5.13;;
46136;SDS011;31871;49.418;8.752;2022-11-15T07:49:44;9.05;;;4.53;;
46136;SDS011;31871;49.418;8.752;2022-11-15T07:52:11;8.88;;;4.63;;
46136;SDS011;31871;49.418;8.752;2022-11-15T07:54:37;16.67;;;5.05;;
46136;SDS011;31871;49.418;8.752;2022-11-15T07:57:02;7.95;;;4.50;;
46136;SDS011;31871;49.418;8.752;2022-11-15T07:59:28;12.25;;;5.40;;
46136;SDS011;31871;49.418;8.752;2022-11-15T08:01:53;9.68;;;4.85;;
46136;SDS011;31871;49.418;8.752;2022-11-15T08:04:19;8.40;;;4.05;;
46136;SDS011;31871;49.418;8.752;2022-11-15T08:06:44;11.82;;;4.32;;
46136;SDS011;31871;49.418;8.752;2022-11-15T08:09:10;12.57;;;4.60;;
46136;SDS011;31871;49.418;8.752;2022-11-15T08:11:36;14.13;;;4.95;;
46136;SDS011;31871;49.418;8.752;2022-11-15T08:14:02;8.63;;;4.43;;
46136;SDS011;31871;49.418;8.752;2022-11-15T08:16:28;12.13;;;4.88;;
46136;SDS011;31871;49.418;8.752;2022-11-15T08:18:53;7.70;;;4.07;;
46136;SDS011;31871;49.418;8.752;2022-11-15T08:21:19;9.55;;;4.60;;
46136;SDS011;31871;49.418;8.752;2022-11-15T08:23:45;11.10;;;5.10;;
46136;SDS011;31871;49.418;8.752;2022-11-15T08:26:11;12.63;;;4.53;;
46136;SDS011;31871;49.418;8.752;2022-11-15T08:28:37;10.60;;;4.78;;
46136;SDS011;31871;49.418;8.752;2022-11-15T08:31:03;10.60;;;4.50;;
46136;SDS011;31871;49.418;8.752;2022-11-15T08:33:29;15.73;;;5.15;;
46136;SDS011;31871;49.418;8.752;2022-11-15T08:35:56;12.20;;;5.00;;
46136;SDS011;31871;49.418;8.752;2022-11-15T08:38:22;12.02;;;4.97;;
46136;SDS011;31871;49.418;8.752;2022-11-15T08:40:49;11.75;;;4.80;;
46136;SDS011;31871;49.418;8.752;2022-11-15T08:43:16;14.57;;;4.93;;
46136;SDS011;31871;49.418;8.752;2022-11-15T08:45:42;12.55;;;4.65;;
46136;SDS011;31871;49.418;8.752;2022-11-15T08:48:08;11.52;;;4.43;;
46136;SDS011;31871;49.418;8.752;2022-11-15T08:50:33;9.93;;;4.55;;
46136;SDS011;31871;49.418;8.752;2022-11-15T08:53:06;11.88;;;4.55;;
